createdAt,value
2023-02-19T00:00:30.674Z,996.71
2023-02-19T00:01:01.479Z,996.61
2023-02-19T00:01:33.536Z,996.61
2023-02-19T00:02:05.505Z,996.61
2023-02-19T00:02:37.835Z,996.61
2023-02-19T00:03:11.356Z,996.51
2023-02-19T00:03:34.886Z,996.51
2023-02-19T00:03:57.918Z,996.51
2023-02-19T00:04:30.042Z,996.51
2023-02-19T00:05:03.448Z,996.41
2023-02-19T00:05:33.472Z,996.41
2023-02-19T00:06:05.584Z,996.61
2023-02-19T00:06:37.491Z,996.61
2023-02-19T00:07:09.494Z,996.51
2023-02-19T00:07:34.796Z,996.31
2023-02-19T00:07:57.569Z,996.31
2023-02-19T00:08:30.130Z,996.31
2023-02-19T00:09:01.502Z,996.51
2023-02-19T00:09:34.255Z,996.51
2023-02-19T00:10:05.942Z,996.51
2023-02-19T00:10:37.540Z,996.51
2023-02-19T00:11:09.860Z,996.61
2023-02-19T00:11:34.779Z,996.71
2023-02-19T00:11:57.500Z,996.71
2023-02-19T00:12:30.089Z,996.71
2023-02-19T00:13:01.793Z,996.51
2023-02-19T00:13:33.438Z,996.51
2023-02-19T00:14:05.449Z,996.51
2023-02-19T00:14:37.524Z,996.51
2023-02-19T00:15:10.435Z,996.51
2023-02-19T00:15:34.836Z,996.41
2023-02-19T00:15:58.734Z,996.41
2023-02-19T00:16:30.054Z,996.41
2023-02-19T00:17:01.546Z,996.71
2023-02-19T00:17:33.461Z,996.71
2023-02-19T00:18:05.474Z,996.61
2023-02-19T00:18:37.498Z,996.61
2023-02-19T00:19:10.454Z,996.41
2023-02-19T00:19:34.786Z,996.61
2023-02-19T00:19:58.014Z,996.61
2023-02-19T00:20:30.410Z,996.61
2023-02-19T00:21:01.472Z,996.41
2023-02-19T00:21:33.438Z,996.41
2023-02-19T00:22:05.467Z,996.61
2023-02-19T00:22:37.493Z,996.61
2023-02-19T00:23:09.501Z,996.51
2023-02-19T00:23:34.809Z,996.51
2023-02-19T00:23:57.507Z,996.51
2023-02-19T00:24:30.076Z,996.51
2023-02-19T00:25:03.330Z,996.61
2023-02-19T00:25:34.386Z,996.61
2023-02-19T00:26:16.197Z,996.41
2023-02-19T00:26:37.561Z,996.41
2023-02-19T00:27:09.498Z,996.41
2023-02-19T00:27:34.805Z,996.61
2023-02-19T00:27:57.810Z,996.61
2023-02-19T00:28:30.059Z,996.61
2023-02-19T00:29:01.435Z,996.51
2023-02-19T00:29:33.439Z,996.51
2023-02-19T00:30:07.707Z,996.51
2023-02-19T00:30:37.466Z,996.51
2023-02-19T00:31:09.906Z,996.61
2023-02-19T00:31:35.270Z,996.51
2023-02-19T00:31:58.504Z,996.51
2023-02-19T00:32:29.982Z,996.51
2023-02-19T00:33:03.076Z,996.51
2023-02-19T00:33:33.557Z,996.51
2023-02-19T00:34:05.565Z,996.61
2023-02-19T00:34:37.595Z,996.61
2023-02-19T00:35:10.738Z,996.61
2023-02-19T00:35:34.801Z,996.41
2023-02-19T00:35:57.730Z,996.41
2023-02-19T00:36:29.996Z,996.41
2023-02-19T00:37:01.461Z,996.31
2023-02-19T00:37:33.849Z,996.31
2023-02-19T00:38:05.558Z,996.41
2023-02-19T00:38:37.474Z,996.41
2023-02-19T00:39:09.935Z,996.31
2023-02-19T00:39:35.896Z,996.24
2023-02-19T00:39:57.517Z,996.24
2023-02-19T00:40:30.355Z,996.24
2023-02-19T00:41:01.467Z,996.31
2023-02-19T00:41:34.351Z,996.31
2023-02-19T00:42:05.495Z,996.24
2023-02-19T00:42:37.517Z,996.24
2023-02-19T00:43:09.805Z,996.14
2023-02-19T00:43:34.802Z,996.24
2023-02-19T00:43:57.623Z,996.24
2023-02-19T00:44:30.017Z,996.24
2023-02-19T00:45:03.620Z,996.41
2023-02-19T00:45:33.470Z,996.41
2023-02-19T00:46:07.170Z,996.04
2023-02-19T00:46:34.837Z,996.31
2023-02-19T00:46:53.585Z,996.31
2023-02-19T00:47:25.464Z,996.31
2023-02-19T00:47:42.596Z,996.31
2023-02-19T00:48:13.454Z,996.31
2023-02-19T00:48:35.493Z,996.24
2023-02-19T00:49:01.478Z,996.24
2023-02-19T00:49:33.459Z,996.24
2023-02-19T00:50:05.767Z,996.24
2023-02-19T00:50:37.547Z,996.24
2023-02-19T00:51:10.495Z,996.24
2023-02-19T00:51:34.819Z,996.31
2023-02-19T00:51:57.485Z,996.31
2023-02-19T00:52:29.959Z,996.31
2023-02-19T00:53:01.438Z,996.31
2023-02-19T00:53:38.838Z,996.31
2023-02-19T00:54:05.469Z,996.31
2023-02-19T00:54:38.041Z,996.31
2023-02-19T00:55:09.817Z,996.31
2023-02-19T00:55:34.824Z,996.24
2023-02-19T00:55:57.757Z,996.24
2023-02-19T00:56:29.998Z,996.24
2023-02-19T00:57:01.459Z,996.24
2023-02-19T00:57:34.181Z,996.24
2023-02-19T00:58:05.483Z,996.41
2023-02-19T00:58:37.445Z,996.41
2023-02-19T00:59:09.579Z,996.31
2023-02-19T00:59:34.827Z,996.41
2023-02-19T00:59:57.483Z,996.41
2023-02-19T01:00:30.728Z,996.41
2023-02-19T01:01:01.634Z,996.31
2023-02-19T01:01:33.507Z,996.31
2023-02-19T01:02:05.482Z,996.41
2023-02-19T01:02:37.519Z,996.41
2023-02-19T01:03:09.478Z,996.41
2023-02-19T01:03:34.781Z,996.31
2023-02-19T01:03:58.311Z,996.31
2023-02-19T01:04:30.095Z,996.31
2023-02-19T01:05:03.273Z,996.31
2023-02-19T01:05:33.472Z,996.31
2023-02-19T01:06:05.490Z,996.41
2023-02-19T01:06:37.524Z,996.41
2023-02-19T01:07:10.331Z,996.51
2023-02-19T01:07:35.313Z,996.41
2023-02-19T01:07:57.513Z,996.41
2023-02-19T01:08:29.992Z,996.41
2023-02-19T01:09:01.441Z,996.41
2023-02-19T01:09:34.179Z,996.41
2023-02-19T01:10:05.996Z,996.61
2023-02-19T01:10:37.459Z,996.61
2023-02-19T01:11:10.006Z,996.41
2023-02-19T01:11:34.803Z,996.51
2023-02-19T01:11:57.576Z,996.51
2023-02-19T01:12:30.065Z,996.51
2023-02-19T01:13:01.486Z,996.51
2023-02-19T01:13:34.239Z,996.51
2023-02-19T01:14:05.488Z,996.24
2023-02-19T01:14:37.513Z,996.24
2023-02-19T01:15:10.109Z,996.24
2023-02-19T01:15:34.815Z,996.31
2023-02-19T01:15:57.811Z,996.31
2023-02-19T01:16:30.156Z,996.31
2023-02-19T01:17:01.429Z,996.41
2023-02-19T01:17:33.438Z,996.41
2023-02-19T01:18:05.478Z,996.14
2023-02-19T01:18:34.776Z,996.14
2023-02-19T01:18:53.508Z,996.14
2023-02-19T01:19:25.448Z,996.14
2023-02-19T01:19:42.600Z,996.14
2023-02-19T01:20:14.557Z,996.14
2023-02-19T01:20:35.283Z,996.31
2023-02-19T01:21:01.458Z,996.31
2023-02-19T01:21:33.449Z,996.31
2023-02-19T01:22:05.490Z,996.24
2023-02-19T01:22:37.493Z,996.24
2023-02-19T01:23:10.268Z,996.24
2023-02-19T01:23:34.785Z,996.24
2023-02-19T01:23:57.472Z,996.24
2023-02-19T01:24:29.986Z,996.24
2023-02-19T01:25:03.358Z,996.24
2023-02-19T01:25:33.409Z,996.24
2023-02-19T01:26:05.488Z,996.31
2023-02-19T01:26:37.443Z,996.31
2023-02-19T01:27:09.477Z,996.14
2023-02-19T01:27:34.796Z,996.24
2023-02-19T01:27:58.155Z,996.24
2023-02-19T01:28:30.071Z,996.24
2023-02-19T01:29:01.456Z,996.14
2023-02-19T01:29:34.255Z,996.14
2023-02-19T01:30:07.634Z,996.24
2023-02-19T01:30:37.509Z,996.24
2023-02-19T01:31:09.978Z,996.24
2023-02-19T01:31:34.892Z,996.31
2023-02-19T01:31:57.581Z,996.31
2023-02-19T01:32:30.078Z,996.31
2023-02-19T01:33:02.840Z,996.24
2023-02-19T01:33:33.427Z,996.24
2023-02-19T01:34:05.456Z,996.04
2023-02-19T01:34:35.283Z,995.94
2023-02-19T01:34:53.477Z,995.94
2023-02-19T01:35:25.725Z,995.94
2023-02-19T01:35:42.626Z,996.24
2023-02-19T01:36:13.710Z,996.24
2023-02-19T01:36:35.305Z,995.94
2023-02-19T01:37:01.399Z,995.94
2023-02-19T01:37:33.426Z,995.94
2023-02-19T01:38:05.472Z,996.04
2023-02-19T01:38:37.456Z,996.04
2023-02-19T01:39:10.094Z,996.04
2023-02-19T01:39:34.788Z,995.94
2023-02-19T01:39:57.454Z,995.94
2023-02-19T01:40:30.729Z,995.94
2023-02-19T01:41:01.468Z,996.14
2023-02-19T01:41:33.430Z,996.14
2023-02-19T01:42:05.481Z,995.94
2023-02-19T01:42:37.563Z,995.94
2023-02-19T01:43:09.490Z,996.14
2023-02-19T01:43:34.793Z,996.14
2023-02-19T01:43:57.506Z,996.14
2023-02-19T01:44:30.020Z,996.14
2023-02-19T01:45:03.490Z,996.14
2023-02-19T01:45:34.464Z,996.14
2023-02-19T01:46:07.018Z,996.04
2023-02-19T01:46:38.167Z,996.04
2023-02-19T01:47:09.517Z,995.94
2023-02-19T01:47:34.783Z,996.24
2023-02-19T01:47:57.466Z,996.24
2023-02-19T01:48:30.031Z,996.24
2023-02-19T01:49:01.457Z,996.04
2023-02-19T01:49:33.445Z,996.04
2023-02-19T01:50:06.102Z,996.14
2023-02-19T01:50:37.459Z,996.14
2023-02-19T01:51:10.185Z,995.94
2023-02-19T01:51:35.405Z,996.04
2023-02-19T01:51:58.291Z,996.04
2023-02-19T01:52:29.996Z,996.04
2023-02-19T01:53:01.458Z,996.04
2023-02-19T01:53:39.360Z,996.14
2023-02-19T01:54:05.489Z,996.14
2023-02-19T01:54:37.483Z,996.14
2023-02-19T01:55:10.555Z,996.24
2023-02-19T01:55:34.792Z,995.83
2023-02-19T01:55:57.739Z,995.83
2023-02-19T01:56:30.019Z,995.83
2023-02-19T01:57:01.722Z,995.83
2023-02-19T01:57:33.514Z,995.83
2023-02-19T01:58:05.458Z,995.94
2023-02-19T01:58:37.411Z,995.94
2023-02-19T01:59:09.463Z,996.14
2023-02-19T01:59:34.805Z,995.94
2023-02-19T01:59:57.481Z,995.94
2023-02-19T02:00:30.676Z,995.94
2023-02-19T02:01:01.547Z,995.94
2023-02-19T02:01:34.297Z,995.94
2023-02-19T02:02:05.551Z,995.83
2023-02-19T02:02:37.457Z,995.83
2023-02-19T02:03:09.493Z,995.94
2023-02-19T02:03:35.589Z,995.94
2023-02-19T02:03:58.145Z,995.94
2023-02-19T02:04:29.950Z,995.94
2023-02-19T02:05:03.373Z,995.83
2023-02-19T02:05:33.472Z,995.83
2023-02-19T02:06:05.481Z,995.94
2023-02-19T02:06:37.470Z,995.94
2023-02-19T02:07:09.467Z,995.83
2023-02-19T02:07:34.807Z,995.73
2023-02-19T02:07:58.452Z,995.73
2023-02-19T02:08:30.107Z,995.73
2023-02-19T02:09:01.412Z,995.83
2023-02-19T02:09:33.485Z,995.83
2023-02-19T02:10:05.974Z,995.94
2023-02-19T02:10:37.458Z,995.94
2023-02-19T02:11:10.564Z,995.94
2023-02-19T02:11:34.774Z,995.94
2023-02-19T02:11:57.475Z,995.94
2023-02-19T02:12:30.027Z,995.94
2023-02-19T02:13:01.499Z,995.94
2023-02-19T02:13:33.445Z,995.94
2023-02-19T02:14:05.479Z,996.24
2023-02-19T02:14:34.783Z,995.73
2023-02-19T02:14:53.520Z,995.73
2023-02-19T02:15:26.026Z,995.73
2023-02-19T02:15:42.575Z,995.83
2023-02-19T02:16:13.515Z,995.83
2023-02-19T02:16:35.308Z,995.63
2023-02-19T02:17:01.440Z,995.63
2023-02-19T02:17:34.660Z,995.63
2023-02-19T02:18:05.473Z,995.83
2023-02-19T02:18:37.476Z,995.83
2023-02-19T02:19:09.504Z,995.94
2023-02-19T02:19:34.780Z,995.73
2023-02-19T02:19:57.496Z,995.73
2023-02-19T02:20:30.785Z,995.73
2023-02-19T02:21:01.447Z,995.83
2023-02-19T02:21:33.461Z,995.83
2023-02-19T02:22:05.423Z,995.73
2023-02-19T02:22:37.420Z,995.73
2023-02-19T02:23:09.457Z,995.73
2023-02-19T02:23:35.378Z,995.94
2023-02-19T02:23:58.244Z,995.94
2023-02-19T02:24:30.093Z,995.94
2023-02-19T02:25:03.352Z,995.73
2023-02-19T02:25:33.491Z,995.73
2023-02-19T02:26:05.475Z,995.73
2023-02-19T02:26:37.443Z,995.73
2023-02-19T02:27:10.452Z,995.53
2023-02-19T02:27:34.816Z,995.43
2023-02-19T02:27:57.457Z,995.43
2023-02-19T02:28:30.002Z,995.43
2023-02-19T02:29:01.412Z,995.53
2023-02-19T02:29:34.098Z,995.53
2023-02-19T02:30:07.789Z,995.73
2023-02-19T02:30:37.449Z,995.73
2023-02-19T02:31:10.056Z,995.73
2023-02-19T02:31:34.891Z,995.53
2023-02-19T02:31:57.572Z,995.53
2023-02-19T02:32:29.999Z,995.53
2023-02-19T02:33:02.910Z,995.73
2023-02-19T02:33:34.318Z,995.73
2023-02-19T02:34:05.498Z,995.63
2023-02-19T02:34:37.444Z,995.63
2023-02-19T02:35:09.827Z,995.43
2023-02-19T02:35:35.449Z,995.53
2023-02-19T02:35:57.694Z,995.53
2023-02-19T02:36:30.047Z,995.53
2023-02-19T02:37:01.432Z,995.43
2023-02-19T02:37:33.622Z,995.43
2023-02-19T02:38:05.448Z,995.53
2023-02-19T02:38:37.813Z,995.53
2023-02-19T02:39:09.846Z,995.33
2023-02-19T02:39:34.784Z,995.43
2023-02-19T02:39:58.779Z,995.43
2023-02-19T02:40:30.350Z,995.43
2023-02-19T02:41:01.442Z,995.63
2023-02-19T02:41:33.486Z,995.63
2023-02-19T02:42:05.485Z,995.63
2023-02-19T02:42:37.468Z,995.63
2023-02-19T02:43:10.330Z,995.43
2023-02-19T02:43:34.813Z,995.43
2023-02-19T02:43:57.463Z,995.43
2023-02-19T02:44:30.086Z,995.43
2023-02-19T02:45:03.806Z,995.43
2023-02-19T02:45:33.705Z,995.43
2023-02-19T02:46:07.086Z,995.53
2023-02-19T02:46:34.782Z,995.43
2023-02-19T02:46:53.481Z,995.43
2023-02-19T02:47:25.385Z,995.43
2023-02-19T02:47:42.644Z,995.53
2023-02-19T02:48:13.464Z,995.53
2023-02-19T02:48:35.333Z,995.43
2023-02-19T02:49:01.755Z,995.43
2023-02-19T02:49:34.260Z,995.43
2023-02-19T02:50:06.166Z,995.22
2023-02-19T02:50:37.789Z,995.22
2023-02-19T02:51:09.857Z,995.63
2023-02-19T02:51:34.813Z,995.53
2023-02-19T02:51:57.450Z,995.53
2023-02-19T02:52:29.925Z,995.53
2023-02-19T02:53:01.434Z,995.53
2023-02-19T02:53:33.597Z,995.53
2023-02-19T02:54:05.447Z,995.63
2023-02-19T02:54:34.800Z,995.63
2023-02-19T02:54:53.519Z,995.63
2023-02-19T02:55:25.924Z,995.63
2023-02-19T02:55:42.562Z,995.63
2023-02-19T02:56:13.461Z,995.63
2023-02-19T02:56:35.320Z,995.53
2023-02-19T02:57:01.443Z,995.53
2023-02-19T02:57:33.435Z,995.53
2023-02-19T02:58:05.419Z,995.63
2023-02-19T02:58:37.451Z,995.63
2023-02-19T02:59:10.894Z,995.63
2023-02-19T02:59:35.175Z,995.43
2023-02-19T02:59:57.422Z,995.43
2023-02-19T03:00:30.542Z,995.43
2023-02-19T03:01:01.397Z,995.33
2023-02-19T03:01:33.456Z,995.33
2023-02-19T03:02:05.538Z,995.53
2023-02-19T03:02:37.445Z,995.53
2023-02-19T03:03:09.451Z,995.43
2023-02-19T03:03:34.782Z,995.53
2023-02-19T03:03:57.446Z,995.53
2023-02-19T03:04:29.948Z,995.53
2023-02-19T03:05:03.428Z,995.33
2023-02-19T03:05:34.150Z,995.33
2023-02-19T03:06:05.452Z,995.33
2023-02-19T03:06:37.412Z,995.33
2023-02-19T03:07:09.556Z,995.33
2023-02-19T03:07:35.201Z,995.53
2023-02-19T03:07:57.424Z,995.53
2023-02-19T03:08:29.937Z,995.53
2023-02-19T03:09:01.426Z,995.33
2023-02-19T03:09:33.443Z,995.33
2023-02-19T03:10:05.757Z,995.33
2023-02-19T03:10:37.453Z,995.33
2023-02-19T03:11:09.752Z,995.33
2023-02-19T03:11:34.771Z,995.22
2023-02-19T03:11:58.366Z,995.22
2023-02-19T03:12:30.052Z,995.22
2023-02-19T03:13:01.412Z,995.43
2023-02-19T03:13:33.456Z,995.43
2023-02-19T03:14:05.445Z,995.12
2023-02-19T03:14:37.458Z,995.12
2023-02-19T03:15:10.696Z,995.12
2023-02-19T03:15:34.791Z,995.12
2023-02-19T03:15:57.689Z,995.12
2023-02-19T03:16:29.962Z,995.12
2023-02-19T03:17:01.522Z,995.02
2023-02-19T03:17:33.705Z,995.02
2023-02-19T03:18:05.467Z,995.02
2023-02-19T03:18:35.175Z,995.02
2023-02-19T03:18:53.503Z,995.02
2023-02-19T03:19:25.413Z,995.02
2023-02-19T03:19:42.558Z,995.02
2023-02-19T03:20:14.696Z,995.02
2023-02-19T03:20:35.481Z,995.12
2023-02-19T03:21:01.451Z,995.12
2023-02-19T03:21:34.844Z,995.12
2023-02-19T03:22:05.493Z,994.92
2023-02-19T03:22:37.459Z,994.92
2023-02-19T03:23:09.523Z,995.22
2023-02-19T03:23:35.005Z,995.22
2023-02-19T03:23:57.431Z,995.22
2023-02-19T03:24:29.947Z,995.22
2023-02-19T03:25:03.123Z,995.22
2023-02-19T03:25:33.815Z,995.22
2023-02-19T03:26:05.483Z,995.02
2023-02-19T03:26:34.808Z,995.02
2023-02-19T03:26:53.514Z,995.02
2023-02-19T03:27:25.469Z,995.02
2023-02-19T03:27:42.599Z,995.02
2023-02-19T03:28:13.451Z,995.02
2023-02-19T03:28:35.258Z,995.22
2023-02-19T03:29:01.426Z,995.22
2023-02-19T03:29:33.464Z,995.22
2023-02-19T03:30:07.533Z,995.12
2023-02-19T03:30:37.859Z,995.12
2023-02-19T03:31:11.292Z,995.22
2023-02-19T03:31:35.001Z,995.22
2023-02-19T03:31:58.030Z,995.22
2023-02-19T03:32:29.996Z,995.22
2023-02-19T03:33:02.791Z,995.02
2023-02-19T03:33:33.929Z,995.02
2023-02-19T03:34:05.449Z,995.22
2023-02-19T03:34:37.440Z,995.22
2023-02-19T03:35:09.773Z,995.22
2023-02-19T03:35:34.765Z,994.92
2023-02-19T03:35:58.511Z,994.92
2023-02-19T03:36:29.961Z,994.92
2023-02-19T03:37:01.455Z,995.02
2023-02-19T03:37:34.298Z,995.02
2023-02-19T03:38:05.469Z,995.33
2023-02-19T03:38:37.424Z,995.33
2023-02-19T03:39:09.538Z,995.12
2023-02-19T03:39:34.787Z,995.12
2023-02-19T03:39:57.461Z,995.12
2023-02-19T03:40:30.273Z,995.12
2023-02-19T03:41:01.693Z,995.12
2023-02-19T03:41:33.437Z,995.12
2023-02-19T03:42:05.456Z,995.22
2023-02-19T03:42:37.421Z,995.22
2023-02-19T03:43:09.451Z,995.12
2023-02-19T03:43:34.792Z,995.02
2023-02-19T03:43:58.808Z,995.02
2023-02-19T03:44:29.991Z,995.02
2023-02-19T03:45:03.715Z,995.33
2023-02-19T03:45:33.544Z,995.33
2023-02-19T03:46:07.064Z,995.12
2023-02-19T03:46:37.443Z,995.12
2023-02-19T03:47:10.284Z,995.53
2023-02-19T03:47:34.773Z,995.12
2023-02-19T03:47:57.403Z,995.12
2023-02-19T03:48:29.943Z,995.12
2023-02-19T03:49:01.434Z,995.22
2023-02-19T03:49:33.426Z,995.22
2023-02-19T03:50:05.752Z,995.12
2023-02-19T03:50:37.586Z,995.12
2023-02-19T03:51:09.852Z,995.12
2023-02-19T03:51:35.583Z,995.53
2023-02-19T03:51:57.457Z,995.53
2023-02-19T03:52:29.978Z,995.53
2023-02-19T03:53:01.459Z,995.22
2023-02-19T03:53:33.794Z,995.22
2023-02-19T03:54:05.528Z,995.12
2023-02-19T03:54:37.469Z,995.12
2023-02-19T03:55:10.618Z,995.33
2023-02-19T03:55:34.784Z,995.12
2023-02-19T03:55:57.661Z,995.12
2023-02-19T03:56:29.889Z,995.12
2023-02-19T03:57:02.231Z,995.43
2023-02-19T03:57:33.448Z,995.43
2023-02-19T03:58:05.432Z,995.43
2023-02-19T03:58:35.101Z,995.33
2023-02-19T03:58:53.430Z,995.33
2023-02-19T03:59:25.483Z,995.33
2023-02-19T03:59:42.620Z,995.33
2023-02-19T04:00:16.617Z,995.33
2023-02-19T04:00:35.335Z,995.22
2023-02-19T04:01:01.433Z,995.22
2023-02-19T04:01:33.497Z,995.22
2023-02-19T04:02:05.470Z,995.33
2023-02-19T04:02:37.410Z,995.33
2023-02-19T04:03:09.466Z,995.43
2023-02-19T04:03:34.778Z,995.63
2023-02-19T04:03:57.400Z,995.63
2023-02-19T04:04:29.946Z,995.63
2023-02-19T04:05:03.395Z,995.43
2023-02-19T04:05:33.531Z,995.43
2023-02-19T04:06:05.429Z,995.53
2023-02-19T04:06:38.235Z,995.53
2023-02-19T04:07:09.467Z,995.53
2023-02-19T04:07:34.992Z,995.33
2023-02-19T04:07:57.473Z,995.33
2023-02-19T04:08:29.923Z,995.33
2023-02-19T04:09:01.422Z,995.43
2023-02-19T04:09:34.012Z,995.43
2023-02-19T04:10:05.743Z,995.63
2023-02-19T04:10:37.431Z,995.63
2023-02-19T04:11:09.899Z,995.43
2023-02-19T04:11:34.750Z,995.63
2023-02-19T04:11:57.398Z,995.63
2023-02-19T04:12:29.922Z,995.63
2023-02-19T04:13:02.211Z,995.43
2023-02-19T04:13:33.430Z,995.43
2023-02-19T04:14:05.468Z,995.53
2023-02-19T04:14:34.791Z,995.33
2023-02-19T04:14:53.499Z,995.33
2023-02-19T04:15:25.943Z,995.33
2023-02-19T04:15:42.600Z,995.53
2023-02-19T04:16:14.227Z,995.53
2023-02-19T04:16:35.612Z,995.53
2023-02-19T04:17:01.383Z,995.53
2023-02-19T04:17:33.508Z,995.53
2023-02-19T04:18:05.482Z,995.63
2023-02-19T04:18:37.474Z,995.63
2023-02-19T04:19:09.449Z,995.43
2023-02-19T04:19:34.781Z,995.43
2023-02-19T04:19:57.413Z,995.43
2023-02-19T04:20:30.250Z,995.43
2023-02-19T04:21:01.409Z,995.33
2023-02-19T04:21:33.456Z,995.33
2023-02-19T04:22:05.429Z,995.33
2023-02-19T04:22:37.752Z,995.53
2023-02-19T04:23:09.435Z,995.53
2023-02-19T04:23:34.777Z,995.22
2023-02-19T04:23:57.451Z,995.22
2023-02-19T04:24:29.943Z,995.22
2023-02-19T04:25:03.180Z,995.43
2023-02-19T04:25:33.442Z,995.43
2023-02-19T04:26:05.451Z,995.22
2023-02-19T04:26:37.458Z,995.22
2023-02-19T04:27:09.471Z,995.53
2023-02-19T04:27:35.564Z,995.43
2023-02-19T04:27:57.401Z,995.43
2023-02-19T04:28:29.911Z,995.43
2023-02-19T04:29:02.140Z,995.53
2023-02-19T04:29:33.435Z,995.53
2023-02-19T04:30:07.720Z,995.53
2023-02-19T04:30:35.792Z,995.33
2023-02-19T04:30:53.841Z,995.33
2023-02-19T04:31:25.542Z,995.33
2023-02-19T04:31:42.621Z,995.43
2023-02-19T04:32:14.256Z,995.43
2023-02-19T04:32:35.310Z,995.43
2023-02-19T04:33:03.086Z,995.43
2023-02-19T04:33:33.482Z,995.43
2023-02-19T04:34:05.403Z,995.63
2023-02-19T04:34:37.438Z,995.63
2023-02-19T04:35:09.809Z,995.43
2023-02-19T04:35:34.765Z,995.53
2023-02-19T04:35:57.611Z,995.53
2023-02-19T04:36:29.970Z,995.53
2023-02-19T04:37:01.381Z,995.63
2023-02-19T04:37:33.432Z,995.63
2023-02-19T04:38:05.426Z,995.33
2023-02-19T04:38:38.149Z,995.33
2023-02-19T04:39:09.922Z,995.43
2023-02-19T04:39:34.726Z,995.53
2023-02-19T04:39:57.419Z,995.53
2023-02-19T04:40:30.219Z,995.53
2023-02-19T04:41:01.388Z,995.33
2023-02-19T04:41:33.505Z,995.33
2023-02-19T04:42:05.453Z,995.63
2023-02-19T04:42:37.375Z,995.63
2023-02-19T04:43:09.473Z,995.43
2023-02-19T04:43:34.727Z,995.63
2023-02-19T04:43:57.427Z,995.63
2023-02-19T04:44:29.466Z,995.63
2023-02-19T04:45:03.831Z,995.63
2023-02-19T04:45:33.495Z,995.63
2023-02-19T04:46:07.232Z,995.63
2023-02-19T04:46:34.786Z,995.63
2023-02-19T04:46:53.406Z,995.63
2023-02-19T04:47:25.415Z,995.63
2023-02-19T04:47:42.573Z,995.73
2023-02-19T04:48:14.216Z,995.73
2023-02-19T04:48:35.241Z,995.53
2023-02-19T04:49:01.400Z,995.53
2023-02-19T04:49:33.480Z,995.53
2023-02-19T04:50:05.836Z,995.63
2023-02-19T04:50:37.398Z,995.63
2023-02-19T04:51:09.752Z,995.83
2023-02-19T04:51:34.731Z,995.73
2023-02-19T04:51:57.605Z,995.73
2023-02-19T04:52:29.418Z,995.73
2023-02-19T04:53:01.387Z,995.83
2023-02-19T04:53:33.444Z,995.83
2023-02-19T04:54:05.419Z,995.73
2023-02-19T04:54:36.077Z,995.63
2023-02-19T04:54:53.416Z,995.63
2023-02-19T04:55:25.636Z,995.63
2023-02-19T04:55:42.507Z,995.63
2023-02-19T04:56:13.442Z,995.63
2023-02-19T04:56:35.452Z,995.73
2023-02-19T04:57:01.396Z,995.73
2023-02-19T04:57:33.868Z,995.73
2023-02-19T04:58:05.444Z,995.53
2023-02-19T04:58:37.439Z,995.53
2023-02-19T04:59:09.536Z,995.63
2023-02-19T04:59:34.792Z,995.53
2023-02-19T04:59:57.432Z,995.53
2023-02-19T05:00:30.544Z,995.53
2023-02-19T05:01:02.266Z,995.73
2023-02-19T05:01:33.954Z,995.73
2023-02-19T05:02:04.940Z,995.63
2023-02-19T05:02:34.192Z,995.83
2023-02-19T05:02:52.974Z,995.83
2023-02-19T05:03:25.072Z,995.83
2023-02-19T05:03:42.137Z,995.43
2023-02-19T05:04:15.666Z,995.43
2023-02-19T05:04:35.177Z,995.43
2023-02-19T05:05:01.201Z,995.43
2023-02-19T05:05:32.969Z,995.43
2023-02-19T05:06:04.934Z,995.63
2023-02-19T05:06:38.077Z,995.63
2023-02-19T05:07:09.982Z,995.73
2023-02-19T05:07:34.753Z,995.63
2023-02-19T05:07:57.494Z,995.63
2023-02-19T05:08:29.402Z,995.63
2023-02-19T05:09:01.408Z,995.73
2023-02-19T05:09:33.379Z,995.73
2023-02-19T05:10:05.735Z,995.43
2023-02-19T05:10:38.414Z,995.43
2023-02-19T05:11:09.945Z,995.83
2023-02-19T05:11:34.968Z,995.63
2023-02-19T05:11:57.435Z,995.63
2023-02-19T05:12:29.463Z,995.63
2023-02-19T05:13:01.449Z,995.94
2023-02-19T05:13:33.466Z,995.94
2023-02-19T05:14:05.528Z,995.83
2023-02-19T05:14:37.903Z,995.83
2023-02-19T05:15:10.016Z,995.83
2023-02-19T05:15:34.803Z,995.63
2023-02-19T05:15:57.794Z,995.63
2023-02-19T05:16:29.436Z,995.63
2023-02-19T05:17:02.394Z,995.63
2023-02-19T05:17:33.428Z,995.63
2023-02-19T05:18:05.424Z,995.73
2023-02-19T05:18:34.874Z,995.73
2023-02-19T05:18:53.411Z,995.73
2023-02-19T05:19:25.446Z,995.73
2023-02-19T05:19:42.600Z,995.83
2023-02-19T05:20:14.463Z,995.83
2023-02-19T05:20:35.203Z,995.83
2023-02-19T05:21:01.412Z,995.83
2023-02-19T05:21:33.454Z,995.83
2023-02-19T05:22:05.497Z,995.83
2023-02-19T05:22:37.449Z,995.83
2023-02-19T05:23:09.418Z,995.94
2023-02-19T05:23:34.708Z,995.94
2023-02-19T05:23:57.449Z,995.94
2023-02-19T05:24:29.432Z,995.94
2023-02-19T05:25:03.434Z,995.94
2023-02-19T05:25:33.399Z,995.94
2023-02-19T05:26:05.483Z,995.94
2023-02-19T05:26:38.169Z,995.94
2023-02-19T05:27:09.450Z,995.94
2023-02-19T05:27:35.470Z,995.83
2023-02-19T05:27:57.956Z,995.83
2023-02-19T05:28:29.447Z,995.83
2023-02-19T05:29:01.418Z,995.83
2023-02-19T05:29:33.396Z,995.83
2023-02-19T05:30:07.658Z,995.73
2023-02-19T05:30:37.529Z,995.73
2023-02-19T05:31:10.006Z,995.94
2023-02-19T05:31:34.830Z,995.94
2023-02-19T05:31:57.512Z,995.94
2023-02-19T05:32:29.448Z,995.94
2023-02-19T05:33:03.286Z,995.94
2023-02-19T05:33:33.401Z,995.94
2023-02-19T05:34:05.500Z,995.73
2023-02-19T05:34:34.720Z,996.04
2023-02-19T05:34:53.422Z,996.04
2023-02-19T05:35:26.883Z,996.04
2023-02-19T05:35:42.573Z,996.04
2023-02-19T05:36:14.212Z,996.04
2023-02-19T05:36:35.576Z,995.83
2023-02-19T05:37:01.448Z,995.83
2023-02-19T05:37:33.477Z,995.83
2023-02-19T05:38:05.387Z,996.14
2023-02-19T05:38:37.426Z,996.14
2023-02-19T05:39:09.484Z,995.94
2023-02-19T05:39:34.780Z,996.04
2023-02-19T05:39:57.432Z,996.04
2023-02-19T05:40:29.740Z,996.04
2023-02-19T05:41:01.417Z,996.04
2023-02-19T05:41:33.440Z,996.04
2023-02-19T05:42:05.436Z,996.24
2023-02-19T05:42:39.042Z,996.24
2023-02-19T05:43:09.442Z,996.14
2023-02-19T05:43:35.025Z,996.24
2023-02-19T05:43:57.488Z,996.24
2023-02-19T05:44:29.426Z,996.24
2023-02-19T05:45:03.677Z,995.94
2023-02-19T05:45:33.429Z,995.94
2023-02-19T05:46:07.206Z,996.04
2023-02-19T05:46:37.440Z,996.04
2023-02-19T05:47:09.418Z,996.14
2023-02-19T05:47:34.708Z,996.14
2023-02-19T05:47:57.483Z,996.14
2023-02-19T05:48:29.403Z,996.14
2023-02-19T05:49:02.114Z,996.24
2023-02-19T05:49:33.396Z,996.24
2023-02-19T05:50:05.782Z,996.24
2023-02-19T05:50:34.728Z,996.04
2023-02-19T05:50:53.634Z,996.04
2023-02-19T05:51:25.486Z,996.04
2023-02-19T05:51:42.594Z,996.04
2023-02-19T05:52:14.314Z,996.04
2023-02-19T05:52:35.209Z,996.14
2023-02-19T05:53:01.408Z,996.14
2023-02-19T05:53:33.962Z,996.14
2023-02-19T05:54:05.425Z,995.94
2023-02-19T05:54:34.706Z,996.14
2023-02-19T05:54:53.404Z,996.14
2023-02-19T05:55:26.880Z,996.14
2023-02-19T05:55:42.764Z,996.14
2023-02-19T05:56:13.727Z,996.14
2023-02-19T05:56:35.164Z,996.31
2023-02-19T05:57:01.385Z,996.31
2023-02-19T05:57:33.384Z,996.31
2023-02-19T05:58:05.452Z,996.14
2023-02-19T05:58:38.088Z,996.14
2023-02-19T05:59:09.415Z,996.24
2023-02-19T05:59:34.714Z,996.14
2023-02-19T05:59:57.537Z,996.14
2023-02-19T06:00:30.023Z,996.14
2023-02-19T06:01:01.473Z,996.24
2023-02-19T06:01:33.826Z,996.24
2023-02-19T06:02:05.492Z,996.04
2023-02-19T06:02:37.468Z,996.04
2023-02-19T06:03:09.774Z,996.14
2023-02-19T06:03:34.811Z,996.14
2023-02-19T06:03:57.917Z,996.14
2023-02-19T06:04:29.398Z,996.14
2023-02-19T06:05:03.323Z,996.14
2023-02-19T06:05:33.409Z,996.14